createdAt,value
2023-02-04T00:00:46.129Z,97433.25
2023-02-04T00:03:16.505Z,97434.06
2023-02-04T00:05:45.690Z,97434.91
2023-02-04T00:08:14.507Z,97425.19
2023-02-04T00:10:43.254Z,97427.88
2023-02-04T00:13:11.911Z,97421.69
2023-02-04T00:15:40.727Z,97419.00
2023-02-04T00:18:09.653Z,97417.31
2023-02-04T00:20:39.983Z,97420.00
2023-02-04T00:23:09.918Z,97414.47
2023-02-04T00:25:38.873Z,97414.66
2023-02-04T00:28:07.436Z,97422.69
2023-02-04T00:30:36.183Z,97415.50
2023-02-04T00:33:05.096Z,97424.56
2023-02-04T00:35:33.774Z,97428.91
2023-02-04T00:38:04.203Z,97414.66
2023-02-04T00:40:33.211Z,97421.88
2023-02-04T00:43:02.014Z,97429.94
2023-02-04T00:45:30.621Z,97424.56
2023-02-04T00:47:59.344Z,97431.78
2023-02-04T00:50:28.082Z,97432.59
2023-02-04T00:52:57.186Z,97416.50
2023-02-04T00:55:27.989Z,97425.59
2023-02-04T00:57:56.689Z,97422.69
2023-02-04T01:00:25.475Z,97428.28
2023-02-04T01:02:54.204Z,97432.59
2023-02-04T01:05:23.125Z,97421.03
2023-02-04T01:07:52.111Z,97412.16
2023-02-04T01:10:20.992Z,97404.13
2023-02-04T01:12:51.606Z,97405.13
2023-02-04T01:15:22.801Z,97404.13
2023-02-04T01:17:51.746Z,97405.97
2023-02-04T01:20:20.706Z,97395.25
2023-02-04T01:22:49.479Z,97389.88
2023-02-04T01:25:18.401Z,97386.34
2023-02-04T01:27:47.353Z,97384.50
2023-02-04T01:30:17.938Z,97381.81
2023-02-04T01:32:46.546Z,97383.66
2023-02-04T01:35:15.280Z,97383.66
2023-02-04T01:37:44.128Z,97381.81
2023-02-04T01:40:14.265Z,97403.47
2023-02-04T01:42:43.254Z,97398.13
2023-02-04T01:45:12.174Z,97395.44
2023-02-04T01:47:42.325Z,97404.31
2023-02-04T01:50:13.224Z,97427.63
2023-02-04T01:52:42.239Z,97428.47
2023-02-04T01:55:15.460Z,97417.72
2023-02-04T01:57:44.610Z,97431.13
2023-02-04T02:00:17.821Z,97445.38
2023-02-04T02:02:50.541Z,97438.38
2023-02-04T02:05:21.829Z,97436.50
2023-02-04T02:07:50.544Z,97430.31
2023-02-04T02:10:19.301Z,97437.53
2023-02-04T02:12:48.024Z,97440.00
2023-02-04T02:15:17.261Z,97441.06
2023-02-04T02:17:47.060Z,97443.75
2023-02-04T02:20:19.361Z,97464.16
2023-02-04T02:22:57.131Z,97453.44
2023-02-04T02:25:27.098Z,97467.91
2023-02-04T02:27:55.970Z,97480.50
2023-02-04T02:30:24.627Z,97479.66
2023-02-04T02:32:53.409Z,97487.72
2023-02-04T02:35:22.099Z,97495.78
2023-02-04T02:37:50.660Z,97489.38
2023-02-04T02:40:20.359Z,97495.78
2023-02-04T02:42:51.534Z,97508.31
2023-02-04T02:45:24.495Z,97512.88
2023-02-04T02:47:54.002Z,97509.19
2023-02-04T02:50:24.869Z,97507.50
2023-02-04T02:52:53.688Z,97520.94
2023-02-04T02:55:24.243Z,97519.06
2023-02-04T02:57:54.594Z,97524.66
2023-02-04T03:00:25.617Z,97520.94
2023-02-04T03:02:57.866Z,97522.78
2023-02-04T03:05:26.642Z,97522.97
2023-02-04T03:07:55.535Z,97526.50
2023-02-04T03:10:24.118Z,97535.38
2023-02-04T03:12:54.397Z,97530.84
2023-02-04T03:15:23.038Z,97539.72
2023-02-04T03:17:56.510Z,97546.94
2023-02-04T03:20:25.660Z,97549.63
2023-02-04T03:22:54.488Z,97555.81
2023-02-04T03:25:24.718Z,97554.16
2023-02-04T03:27:55.192Z,97556.03
2023-02-04T03:30:24.304Z,97565.91
2023-02-04T03:32:53.343Z,97564.06
2023-02-04T03:35:22.144Z,97572.94
2023-02-04T03:37:51.267Z,97585.34
2023-02-04T03:40:19.991Z,97586.38
2023-02-04T03:42:48.695Z,97595.44
2023-02-04T03:45:18.939Z,97611.53
2023-02-04T03:47:47.569Z,97618.59
2023-02-04T03:50:17.150Z,97627.63
2023-02-04T03:52:45.933Z,97641.06
2023-02-04T03:55:14.688Z,97648.28
2023-02-04T03:57:43.361Z,97658.84
2023-02-04T04:00:13.729Z,97668.91
2023-02-04T04:02:43.842Z,97694.72
2023-02-04T04:05:12.815Z,97709.00
2023-02-04T04:07:41.483Z,97731.31
2023-02-04T04:10:10.870Z,97746.59
2023-02-04T04:12:39.698Z,97776.94
2023-02-04T04:15:09.909Z,97799.22
2023-02-04T04:17:38.528Z,97809.16
2023-02-04T04:20:10.516Z,97824.41
2023-02-04T04:22:39.205Z,97843.22
2023-02-04T04:25:09.165Z,97853.09
2023-02-04T04:27:37.724Z,97871.88
2023-02-04T04:30:06.918Z,97893.34
2023-02-04T04:32:35.471Z,97910.47
2023-02-04T04:35:04.019Z,97931.13
2023-02-04T04:37:35.240Z,97943.72
2023-02-04T04:40:03.913Z,97970.56
2023-02-04T04:42:32.463Z,97975.09
2023-02-04T04:45:01.068Z,97989.34
2023-02-04T04:47:29.799Z,98001.06
2023-02-04T04:49:58.416Z,98026.09
2023-02-04T04:52:27.282Z,98034.97
2023-02-04T04:54:57.268Z,98053.75
2023-02-04T04:57:25.900Z,98052.06
2023-02-04T04:59:54.456Z,98061.97
2023-02-04T05:02:23.199Z,98082.47
2023-02-04T05:04:51.987Z,98101.25
2023-02-04T05:07:20.579Z,98111.13
2023-02-04T05:09:49.156Z,98124.53
2023-02-04T05:12:19.104Z,98133.63
2023-02-04T05:14:47.709Z,98154.06
2023-02-04T05:17:16.271Z,98157.78
2023-02-04T05:19:44.838Z,98180.91
2023-02-04T05:22:13.805Z,98189.16
2023-02-04T05:24:42.329Z,98209.59
2023-02-04T05:27:11.018Z,98227.56
2023-02-04T05:29:41.017Z,98257.09
2023-02-04T05:32:11.339Z,98258.94
2023-02-04T05:34:40.107Z,98275.03
2023-02-04T05:37:08.642Z,98296.53
2023-02-04T05:39:37.165Z,98318.00
2023-02-04T05:42:06.001Z,98325.22
2023-02-04T05:44:34.727Z,98360.13
2023-02-04T05:47:04.936Z,98355.56
2023-02-04T05:49:33.658Z,98377.03
2023-02-04T05:52:02.380Z,98389.63
2023-02-04T05:54:30.941Z,98394.13
2023-02-04T05:56:59.771Z,98418.31
2023-02-04T05:59:28.562Z,98430.72
2023-02-04T06:01:57.094Z,98447.81
2023-02-04T06:04:27.519Z,98462.13
2023-02-04T06:06:56.177Z,98476.53
2023-02-04T06:09:24.848Z,98483.59
2023-02-04T06:11:54.842Z,98505.91
2023-02-04T06:14:23.400Z,98523.84
2023-02-04T06:16:52.313Z,98532.75
2023-02-04T06:19:21.122Z,98553.38
2023-02-04T06:21:51.212Z,98572.16
2023-02-04T06:24:19.905Z,98575.69
2023-02-04T06:26:48.527Z,98580.03
2023-02-04T06:29:17.303Z,98587.25
2023-02-04T06:31:45.881Z,98601.69
2023-02-04T06:34:14.861Z,98607.91
2023-02-04T06:36:43.387Z,98633.03
2023-02-04T06:39:13.306Z,98655.38
2023-02-04T06:41:42.082Z,98667.78
2023-02-04T06:44:10.591Z,98684.75
2023-02-04T06:46:39.224Z,98688.44
2023-02-04T06:49:07.906Z,98697.31
2023-02-04T06:51:36.458Z,98710.75
2023-02-04T06:54:05.555Z,98725.00
2023-02-04T06:56:35.579Z,98731.38
2023-02-04T06:59:04.149Z,98740.28
2023-02-04T07:01:33.223Z,98752.03
2023-02-04T07:04:02.111Z,98762.75
2023-02-04T07:06:31.065Z,98768.97
2023-02-04T07:08:59.615Z,98795.81
2023-02-04T07:11:28.558Z,98807.38
2023-02-04T07:13:58.607Z,98817.28
2023-02-04T07:16:27.839Z,98827.19
2023-02-04T07:18:56.500Z,98836.91
2023-02-04T07:21:25.144Z,98844.13
2023-02-04T07:23:54.332Z,98852.00
2023-02-04T07:26:22.815Z,98851.19
2023-02-04T07:28:52.332Z,98872.84
2023-02-04T07:31:22.635Z,98866.44
2023-02-04T07:33:51.368Z,98866.44
2023-02-04T07:36:20.151Z,98878.84
2023-02-04T07:38:48.865Z,98892.47
2023-02-04T07:41:17.602Z,98894.31
2023-02-04T07:43:46.343Z,98904.19
2023-02-04T07:46:15.656Z,98907.88
2023-02-04T07:48:45.889Z,98912.25
2023-02-04T07:51:14.466Z,98925.66
2023-02-04T07:53:43.234Z,98925.84
2023-02-04T07:56:11.815Z,98936.56
2023-02-04T07:58:40.693Z,98940.94
2023-02-04T08:01:09.414Z,98948.53
2023-02-04T08:03:38.712Z,98955.41
2023-02-04T08:06:10.274Z,98954.41
2023-02-04T08:08:38.889Z,98963.47
2023-02-04T08:11:07.756Z,98981.44
2023-02-04T08:13:36.535Z,98976.06
2023-02-04T08:16:05.686Z,98988.47
2023-02-04T08:18:34.622Z,99008.09
2023-02-04T08:21:05.201Z,99017.00
2023-02-04T08:23:35.415Z,99019.69
2023-02-04T08:26:06.204Z,99033.97
2023-02-04T08:28:35.056Z,99038.47
2023-02-04T08:31:05.073Z,99055.47
2023-02-04T08:33:33.763Z,99058.16
2023-02-04T08:36:02.721Z,99064.50
2023-02-04T08:38:31.638Z,99076.78
2023-02-04T08:41:01.909Z,99083.16
2023-02-04T08:43:30.587Z,99084.81
2023-02-04T08:45:59.601Z,99082.84
2023-02-04T08:48:28.320Z,99096.13
2023-02-04T08:50:57.037Z,99099.78
2023-02-04T08:53:25.979Z,99105.16
2023-02-04T08:55:54.776Z,99096.13
2023-02-04T08:58:25.159Z,99110.22
2023-02-04T09:00:54.001Z,99117.75
2023-02-04T09:03:22.571Z,99121.44
2023-02-04T09:05:51.341Z,99121.59
2023-02-04T09:08:19.887Z,99127.78
2023-02-04T09:10:48.858Z,99124.41
2023-02-04T09:13:17.466Z,99132.63
2023-02-04T09:15:47.412Z,99141.38
2023-02-04T09:18:17.386Z,99141.91
2023-02-04T09:20:46.242Z,99146.44
2023-02-04T09:23:15.162Z,99154.50
2023-02-04T09:25:45.953Z,99159.88
2023-02-04T09:28:17.267Z,99166.09
2023-02-04T09:30:48.233Z,99184.88
2023-02-04T09:33:17.898Z,99185.72
2023-02-04T09:35:46.559Z,99198.16
2023-02-04T09:38:15.125Z,99191.78
2023-02-04T09:40:45.547Z,99196.97
2023-02-04T09:43:17.620Z,99204.91
2023-02-04T09:45:49.098Z,99201.22
2023-02-04T09:48:17.755Z,99214.94
2023-02-04T09:50:46.457Z,99216.78
2023-02-04T09:53:16.066Z,99226.38
2023-02-04T09:55:46.251Z,99238.81
2023-02-04T09:58:17.420Z,99229.91
2023-02-04T10:00:48.340Z,99234.31
2023-02-04T10:03:18.186Z,99234.31
2023-02-04T10:05:47.480Z,99237.00
2023-02-04T10:08:17.234Z,99239.50
2023-02-04T10:10:46.464Z,99242.81
2023-02-04T10:13:19.742Z,99250.69
2023-02-04T10:15:50.424Z,99247.75
2023-02-04T10:18:22.827Z,99242.38
2023-02-04T10:20:51.626Z,99245.50
2023-02-04T10:23:21.884Z,99240.56
2023-02-04T10:25:50.517Z,99244.50
2023-02-04T10:28:19.684Z,99242.81
2023-02-04T10:30:50.627Z,99247.88
2023-02-04T10:33:24.959Z,99269.38
2023-02-04T10:35:54.868Z,99272.75
2023-02-04T10:38:24.164Z,99273.06
2023-02-04T10:41:02.576Z,99274.72
2023-02-04T10:43:31.759Z,99264.00
2023-02-04T10:46:03.455Z,99274.72
2023-02-04T10:48:40.282Z,99281.78
2023-02-04T10:51:11.203Z,99277.28
2023-02-04T10:53:57.711Z,99296.91
2023-02-04T10:56:26.589Z,99292.38
2023-02-04T10:58:55.500Z,99295.78
2023-02-04T11:01:26.829Z,99298.59
2023-02-04T11:03:55.637Z,99307.66
2023-02-04T11:06:25.799Z,99301.59
2023-02-04T11:08:55.407Z,99305.94
2023-02-04T11:11:25.774Z,99317.41
2023-02-04T11:14:03.491Z,99304.97
2023-02-04T11:16:35.628Z,99305.81
2023-02-04T11:19:05.858Z,99313.34
2023-02-04T11:21:44.448Z,99312.19
2023-02-04T11:24:26.597Z,99314.88
2023-02-04T11:27:07.086Z,99325.47
2023-02-04T11:29:38.517Z,99314.72
2023-02-04T11:32:27.664Z,99324.63
2023-02-04T11:34:57.500Z,99325.47
2023-02-04T11:37:39.873Z,99328.44
2023-02-04T11:40:22.585Z,99338.19
2023-02-04T11:42:51.405Z,99342.72
2023-02-04T11:45:24.587Z,99345.25
2023-02-04T11:47:54.979Z,99352.47
2023-02-04T11:50:25.464Z,99361.38
2023-02-04T11:52:56.338Z,99385.69
2023-02-04T11:55:26.312Z,99369.16
2023-02-04T11:57:56.847Z,99351.91
2023-02-04T12:00:26.884Z,99365.03
2023-02-04T12:03:00.334Z,99370.41
2023-02-04T12:05:40.881Z,99373.09
2023-02-04T12:08:14.166Z,99367.72
2023-02-04T12:10:50.378Z,99373.81
2023-02-04T12:13:22.724Z,99371.13
2023-02-04T12:15:57.069Z,99369.44
2023-02-04T12:18:27.896Z,99380.19
2023-02-04T12:20:57.098Z,99381.16
2023-02-04T12:23:26.066Z,99396.59
2023-02-04T12:25:54.887Z,99388.53
2023-02-04T12:28:23.624Z,99390.34
2023-02-04T12:30:52.701Z,99389.22
2023-02-04T12:33:22.851Z,99391.75
2023-02-04T12:35:52.875Z,99394.16
2023-02-04T12:38:22.028Z,99395.16
2023-02-04T12:40:50.624Z,99390.63
2023-02-04T12:43:19.284Z,99378.19
2023-02-04T12:45:50.097Z,99401.38
2023-02-04T12:48:18.965Z,99387.09
2023-02-04T12:50:48.062Z,99399.69
2023-02-04T12:53:18.261Z,99406.88
2023-02-04T12:55:47.229Z,99405.06
2023-02-04T12:58:15.916Z,99405.06
2023-02-04T13:00:45.176Z,99413.13
2023-02-04T13:03:14.117Z,99417.47
2023-02-04T13:05:42.882Z,99418.63
2023-02-04T13:08:11.598Z,99427.38
2023-02-04T13:10:41.565Z,99437.28
2023-02-04T13:13:10.727Z,99424.69
2023-02-04T13:15:39.308Z,99422.84
2023-02-04T13:18:08.624Z,99419.47
2023-02-04T13:20:37.428Z,99421.19
2023-02-04T13:23:06.175Z,99430.91
2023-02-04T13:25:35.384Z,99442.38
2023-02-04T13:28:05.606Z,99438.25
2023-02-04T13:30:34.944Z,99449.72
2023-02-04T13:33:03.888Z,99447.88
2023-02-04T13:35:33.010Z,99450.72
2023-02-04T13:38:02.111Z,99456.94
2023-02-04T13:40:31.116Z,99456.09
2023-02-04T13:43:00.117Z,99457.91
2023-02-04T13:45:30.491Z,99463.44
2023-02-04T13:47:59.557Z,99474.03
2023-02-04T13:50:28.889Z,99473.34
2023-02-04T13:52:57.868Z,99476.16
2023-02-04T13:55:26.853Z,99473.78
2023-02-04T13:57:55.539Z,99477.59
2023-02-04T14:00:24.488Z,99478.97
2023-02-04T14:02:56.383Z,99494.66
2023-02-04T14:05:25.125Z,99481.25
2023-02-04T14:07:54.025Z,99482.94
2023-02-04T14:10:25.023Z,99487.44
2023-02-04T14:12:54.278Z,99489.28
2023-02-04T14:15:23.006Z,99491.28
2023-02-04T14:17:53.155Z,99492.41
2023-02-04T14:20:22.072Z,99493.28
2023-02-04T14:22:50.953Z,99500.34
2023-02-04T14:25:19.725Z,99499.50
2023-02-04T14:27:48.495Z,99502.31
2023-02-04T14:30:18.662Z,99503.31
2023-02-04T14:32:47.440Z,99515.06
2023-02-04T14:35:17.530Z,99515.19
2023-02-04T14:37:46.389Z,99515.91
2023-02-04T14:40:15.498Z,99522.41
2023-02-04T14:42:45.095Z,99517.75
2023-02-04T14:45:15.062Z,99518.88
2023-02-04T14:47:43.980Z,99519.72
2023-02-04T14:50:16.593Z,99515.31
2023-02-04T14:52:45.301Z,99519.13
2023-02-04T14:55:14.729Z,99517.34
2023-02-04T14:57:43.463Z,99522.53
2023-02-04T15:00:15.122Z,99535.00
2023-02-04T15:02:44.080Z,99537.69
2023-02-04T15:05:13.506Z,99544.19
2023-02-04T15:07:43.797Z,99544.44
2023-02-04T15:10:15.129Z,99550.41
2023-02-04T15:12:44.155Z,99560.28
2023-02-04T15:15:12.948Z,99547.56
2023-02-04T15:17:41.696Z,99565.66
2023-02-04T15:20:12.584Z,99565.50
2023-02-04T15:22:42.847Z,99551.25
2023-02-04T15:25:12.117Z,99563.66
2023-02-04T15:27:40.861Z,99571.72
2023-02-04T15:30:11.218Z,99566.50
2023-02-04T15:32:40.396Z,99562.69
2023-02-04T15:35:09.516Z,99571.03
2023-02-04T15:37:38.561Z,99571.88
2023-02-04T15:40:10.143Z,99572.72
2023-02-04T15:42:39.599Z,99573.44
2023-02-04T15:45:09.128Z,99575.25
2023-02-04T15:47:37.816Z,99579.53
2023-02-04T15:50:09.209Z,99581.19
2023-02-04T15:52:37.795Z,99573.28
2023-02-04T15:55:09.247Z,99584.88
2023-02-04T16:00:27.020Z,99578.22
2023-02-04T16:02:56.531Z,99574.69
2023-02-04T16:05:25.570Z,99580.91
2023-02-04T16:07:54.278Z,99590.81
2023-02-04T16:10:25.264Z,99580.34
2023-02-04T16:12:55.260Z,99601.00
2023-02-04T16:15:23.848Z,99598.56
2023-02-04T16:18:05.061Z,99609.31
2023-02-04T16:20:34.449Z,99615.41
2023-02-04T16:23:04.349Z,99618.94
2023-02-04T16:25:34.773Z,99616.25
2023-02-04T16:28:04.132Z,99616.97
2023-02-04T16:30:33.124Z,99610.75
2023-02-04T16:33:01.846Z,99611.75
2023-02-04T16:35:33.072Z,99613.13
2023-02-04T16:38:01.860Z,99609.19
2023-02-04T16:40:30.972Z,99607.91
2023-02-04T16:43:01.092Z,99617.25
2023-02-04T16:45:29.728Z,99611.03
2023-02-04T16:48:01.338Z,99619.38
2023-02-04T16:50:29.952Z,99619.38
2023-02-04T16:52:58.537Z,99615.81
2023-02-04T16:55:30.301Z,99620.34
2023-02-04T16:58:00.347Z,99625.00
2023-02-04T17:00:29.027Z,99624.88
2023-02-04T17:02:57.862Z,99624.47
2023-02-04T17:05:26.471Z,99623.47
2023-02-04T17:07:58.632Z,99612.59
2023-02-04T17:10:41.212Z,99621.91
2023-02-04T17:13:11.392Z,99622.75
2023-02-04T17:15:40.053Z,99622.75
2023-02-04T17:18:08.653Z,99630.81
2023-02-04T17:20:37.776Z,99617.38
2023-02-04T17:23:06.634Z,99620.06
2023-02-04T17:25:35.377Z,99625.31
2023-02-04T17:28:04.477Z,99615.41
2023-02-04T17:30:34.600Z,99629.84
2023-02-04T17:33:03.225Z,99630.69
2023-02-04T17:35:32.588Z,99634.19
2023-02-04T17:38:01.684Z,99629.00
2023-02-04T17:40:30.460Z,99629.84
2023-02-04T17:42:59.126Z,99636.03
2023-02-04T17:45:27.873Z,99637.88
2023-02-04T17:47:58.073Z,99636.03
2023-02-04T17:50:26.851Z,99632.66
2023-02-04T17:52:55.471Z,99637.88
2023-02-04T17:55:27.789Z,99641.41
2023-02-04T17:57:56.886Z,99647.63
2023-02-04T18:00:28.187Z,99650.47
2023-02-04T18:02:58.587Z,99646.78
2023-02-04T18:05:28.517Z,99647.63
2023-02-04T18:08:01.491Z,99651.16
2023-02-04T18:10:33.194Z,99651.03
2023-02-04T18:13:14.960Z,99657.97
2023-02-04T18:15:45.369Z,99654.44
2023-02-04T18:18:22.199Z,99652.59
2023-02-04T18:21:00.292Z,99647.22
2023-02-04T18:23:30.813Z,99647.34
2023-02-04T18:26:02.639Z,99651.03
2023-02-04T18:28:31.609Z,99654.72
2023-02-04T18:31:00.330Z,99656.25
2023-02-04T18:33:32.469Z,99651.16
2023-02-04T18:36:03.517Z,99657.25
2023-02-04T18:38:37.482Z,99654.44
2023-02-04T18:41:31.559Z,99645.38
2023-02-04T18:44:03.432Z,99653.44
2023-02-04T18:46:34.829Z,99651.47
2023-02-04T18:49:07.486Z,99648.78
2023-02-04T18:51:40.154Z,99659.22
2023-02-04T18:54:30.591Z,99651.47
2023-02-04T18:57:32.935Z,99655.28
2023-02-04T19:00:32.298Z,99650.88
2023-02-04T19:03:02.306Z,99654.44
2023-02-04T19:05:36.516Z,99650.88
2023-02-04T19:08:26.534Z,99644.66
2023-02-04T19:10:56.257Z,99652.72
2023-02-04T19:13:27.316Z,99652.44
2023-02-04T19:15:59.882Z,99658.38
2023-02-04T19:18:31.368Z,99660.06
2023-02-04T19:21:27.366Z,99666.44
2023-02-04T19:24:00.962Z,99674.63
2023-02-04T19:26:34.191Z,99673.78
2023-02-04T19:29:04.201Z,99683.81
2023-02-04T19:31:35.481Z,99672.22
2023-02-04T19:34:22.434Z,99683.81
2023-02-04T19:36:52.635Z,99686.38
2023-02-04T19:39:29.893Z,99684.41
2023-02-04T19:41:58.808Z,99679.28
2023-02-04T19:44:42.382Z,99681.41
2023-02-04T19:47:25.227Z,99676.03
2023-02-04T19:50:01.454Z,99672.53
2023-02-04T19:52:44.430Z,99677.88
2023-02-04T19:55:34.745Z,99678.72
2023-02-04T19:58:13.582Z,99678.72
2023-02-04T20:00:46.766Z,99686.66
2023-02-04T20:03:40.784Z,99698.38
2023-02-04T20:06:32.066Z,99700.22
2023-02-04T20:09:05.422Z,99694.84
2023-02-04T20:12:11.597Z,99706.44
2023-02-04T20:14:52.177Z,99710.13
2023-02-04T20:17:42.723Z,99726.25
2023-02-04T20:20:24.285Z,99717.19
2023-02-04T20:22:55.316Z,99712.94
2023-02-04T20:25:45.681Z,99729.91
2023-02-04T20:28:42.962Z,99726.25
2023-02-04T20:31:36.867Z,99733.44
2023-02-04T20:34:16.760Z,99733.44
2023-02-04T20:36:46.339Z,99740.66
2023-02-04T20:39:40.625Z,99754.09
2023-02-04T20:42:35.554Z,99742.34
2023-02-04T20:45:32.795Z,99747.72
2023-02-04T20:48:03.296Z,99747.72
2023-02-04T20:50:43.084Z,99753.09
2023-02-04T20:53:27.192Z,99750.53
2023-02-04T20:56:03.597Z,99754.94
2023-02-04T20:58:37.892Z,99745.03
2023-02-04T21:01:23.551Z,99759.31
2023-02-04T21:03:52.583Z,99760.16
2023-02-04T21:06:25.917Z,99761.88
2023-02-04T21:08:54.969Z,99761.00
2023-02-04T21:11:24.060Z,99760.16
2023-02-04T21:13:54.610Z,99761.88
2023-02-04T21:16:23.259Z,99760.16
2023-02-04T21:18:53.339Z,99760.16
2023-02-04T21:21:24.646Z,99766.53
2023-02-04T21:23:53.450Z,99765.53
2023-02-04T21:26:22.247Z,99768.22
2023-02-04T21:28:51.438Z,99768.22
2023-02-04T21:31:21.989Z,99769.06
2023-02-04T21:33:50.720Z,99775.44
2023-02-04T21:36:19.378Z,99778.09
2023-02-04T21:38:48.387Z,99779.94
2023-02-04T21:41:17.868Z,99787.00
2023-02-04T21:43:46.551Z,99785.16
2023-02-04T21:46:15.317Z,99787.84
2023-02-04T21:48:45.416Z,99787.00
2023-02-04T21:51:14.574Z,99784.31
2023-02-04T21:53:44.462Z,99788.00
2023-02-04T21:56:14.424Z,99790.53
2023-02-04T21:58:43.054Z,99787.00
2023-02-04T22:01:11.808Z,99792.25
2023-02-04T22:03:40.535Z,99795.22
2023-02-04T22:06:10.757Z,99803.97
2023-02-04T22:08:39.527Z,99793.22
2023-02-04T22:11:08.289Z,99808.50
2023-02-04T22:13:37.482Z,99807.66
2023-02-04T22:16:06.417Z,99811.19
2023-02-04T22:18:35.006Z,99820.09
2023-02-04T22:21:03.857Z,99820.09
2023-02-04T22:23:33.806Z,99827.31
2023-02-04T22:26:02.551Z,99826.34
2023-02-04T22:28:31.267Z,99829.03
2023-02-04T22:31:00.166Z,99835.34
2023-02-04T22:33:28.846Z,99846.94
2023-02-04T22:35:57.551Z,99841.56
2023-02-04T22:38:26.200Z,99841.56
2023-02-04T22:40:56.156Z,99848.78
2023-02-04T22:43:25.163Z,99851.47
2023-02-04T22:45:53.776Z,99856.84
2023-02-04T22:48:22.564Z,99854.16
2023-02-04T22:50:51.401Z,99856.00
2023-02-04T22:53:19.986Z,99855.00
2023-02-04T22:55:48.576Z,99852.31
2023-02-04T22:58:20.032Z,99855.00
2023-02-04T23:00:48.633Z,99856.84
2023-02-04T23:03:17.483Z,99855.00
2023-02-04T23:05:48.029Z,99859.41
2023-02-04T23:08:18.102Z,99865.34
2023-02-04T23:10:46.747Z,99867.47
2023-02-04T23:13:16.620Z,99869.31
2023-02-04T23:15:46.833Z,99872.00
2023-02-04T23:18:15.774Z,99864.91
2023-02-04T23:20:44.566Z,99869.44
2023-02-04T23:23:17.497Z,99867.59
2023-02-04T23:25:46.705Z,99877.50
2023-02-04T23:28:15.584Z,99872.13
2023-02-04T23:30:44.410Z,99876.50
2023-02-04T23:33:14.671Z,99866.63
2023-02-04T23:35:43.324Z,99870.28
2023-02-04T23:38:12.400Z,99873.97
2023-02-04T23:40:41.140Z,99875.66
2023-02-04T23:43:10.894Z,99876.50
2023-02-04T23:45:39.931Z,99871.28
2023-02-04T23:48:09.314Z,99873.97
2023-02-04T23:50:39.512Z,99865.91
2023-02-04T23:53:08.083Z,99865.06
2023-02-04T23:55:37.160Z,99864.91
2023-02-04T23:58:06.486Z,99863.22
